Time;durP1;ratioP1;P1;durP2;ratioP2;P2;SDS_P1;SDS_P2;PMS_P1;PMS_P2;Temp;Humidity;BMP_temperature;BMP_pressure;BME280_temperature;BME280_humidity;BME280_pressure;Samples;Min_cycle;Max_cycle;Signal;HPM_P1;HPM_P2
2022/11/03 00:00:54;;;;;;;59.13;7.60;;;5.40;99.90;;;;;;5090207;28;20510;-59
2022/11/03 00:03:20;;;;;;;21.90;5.60;;;5.40;99.90;;;;;;5096807;28;20192;-59
2022/11/03 00:08:43;;;;;;;27.83;6.80;;;5.40;99.90;;;;;;5060737;28;20221;-59
2022/11/03 00:11:13;;;;;;;12.03;4.90;;;5.30;99.90;;;;;;5101181;28;20430;-60
2022/11/03 00:13:41;;;;;;;6.30;4.77;;;5.30;99.90;;;;;;5104578;28;20170;-59
2022/11/03 00:16:08;;;;;;;11.50;5.03;;;5.30;99.90;;;;;;5110146;28;20415;-59
2022/11/03 00:18:34;;;;;;;8.10;5.00;;;5.30;99.90;;;;;;5100563;28;20480;-61
2022/11/03 00:21:11;;;;;;;14.77;5.93;;;5.30;99.90;;;;;;5087358;28;20837;-59
2022/11/03 00:23:42;;;;;;;15.60;5.60;;;5.30;99.90;;;;;;5104631;28;20176;-60
2022/11/03 00:26:22;;;;;;;23.27;5.77;;;5.20;99.90;;;;;;5104586;28;20509;-60
2022/11/03 00:28:51;;;;;;;11.10;5.63;;;5.20;99.90;;;;;;5101907;28;20485;-59
2022/11/03 00:31:23;;;;;;;11.40;6.00;;;5.20;99.90;;;;;;5100067;28;20949;-59
2022/11/03 00:33:49;;;;;;;9.73;5.20;;;5.20;99.90;;;;;;5094622;28;20529;-59
2022/11/03 00:36:18;;;;;;;9.33;4.63;;;5.20;99.90;;;;;;5105193;28;20472;-59
2022/11/03 00:38:44;;;;;;;13.13;6.00;;;5.20;99.90;;;;;;5104262;28;20439;-59
2022/11/03 00:41:11;;;;;;;12.93;5.10;;;5.20;99.90;;;;;;5106050;28;20517;-60
2022/11/03 00:43:37;;;;;;;8.23;4.47;;;5.20;99.90;;;;;;5106067;28;20429;-60
2022/11/03 00:46:04;;;;;;;15.60;4.73;;;5.20;99.90;;;;;;5103220;28;20419;-59
2022/11/03 00:48:31;;;;;;;24.97;5.00;;;5.20;99.90;;;;;;5101631;28;20553;-59
2022/11/03 00:51:11;;;;;;;12.00;4.73;;;5.10;99.90;;;;;;5105054;28;20514;-60
2022/11/03 00:53:46;;;;;;;6.53;4.23;;;5.10;99.90;;;;;;5087640;28;20514;-59
2022/11/03 00:56:14;;;;;;;6.70;4.17;;;5.10;99.90;;;;;;5099895;28;20454;-60
2022/11/03 00:58:41;;;;;;;46.13;5.63;;;5.10;99.90;;;;;;5095672;28;20458;-59
2022/11/03 01:01:12;;;;;;;11.90;4.73;;;5.10;99.90;;;;;;5088914;28;20501;-59
2022/11/03 01:03:40;;;;;;;22.03;5.53;;;5.00;99.90;;;;;;5105605;28;20439;-59
2022/11/03 01:08:55;;;;;;;36.03;5.93;;;5.00;99.90;;;;;;5100745;28;20458;-59
2022/11/03 01:14:09;;;;;;;12.03;4.33;;;5.00;99.90;;;;;;5099155;28;20180;-60
2022/11/03 01:16:34;;;;;;;8.73;4.33;;;5.00;99.90;;;;;;5102941;28;20419;-59
2022/11/03 01:19:00;;;;;;;25.10;4.50;;;4.90;99.90;;;;;;5108323;28;20459;-59
2022/11/03 01:21:26;;;;;;;14.20;4.40;;;4.90;99.90;;;;;;5104927;28;20177;-59
2022/11/03 01:23:51;;;;;;;21.90;4.73;;;4.90;99.90;;;;;;5096365;28;20161;-59
2022/11/03 01:26:17;;;;;;;33.63;4.83;;;4.80;99.90;;;;;;5112945;28;20247;-59
2022/11/03 01:28:45;;;;;;;8.70;3.60;;;4.80;99.90;;;;;;5108516;28;20200;-59
2022/11/03 01:31:14;;;;;;;15.67;4.80;;;4.80;99.90;;;;;;5111375;28;20184;-58
2022/11/03 01:33:40;;;;;;;7.60;3.90;;;4.80;99.90;;;;;;5095925;28;20419;-60
2022/11/03 01:36:07;;;;;;;37.20;4.50;;;4.80;99.90;;;;;;5102379;28;20458;-58
2022/11/03 01:38:35;;;;;;;11.43;4.70;;;4.80;99.90;;;;;;5103278;28;20499;-59
2022/11/03 01:41:02;;;;;;;19.43;4.50;;;4.80;99.90;;;;;;5111041;28;20522;-59
2022/11/03 01:43:30;;;;;;;12.93;4.27;;;4.80;99.90;;;;;;5108101;28;20431;-59
2022/11/03 01:46:24;;;;;;;16.50;4.20;;;4.80;99.90;;;;;;5098403;28;21094;-60
2022/11/03 01:49:07;;;;;;;20.37;4.30;;;4.70;99.90;;;;;;5100104;28;20702;-59
2022/11/03 01:51:35;;;;;;;22.27;4.10;;;4.70;99.90;;;;;;5102889;28;21081;-59
2022/11/03 01:54:03;;;;;;;29.57;3.90;;;4.70;99.90;;;;;;5104119;28;20438;-59
2022/11/03 01:56:32;;;;;;;21.53;4.40;;;4.70;99.90;;;;;;5132661;22;20478;-54
2022/11/03 01:58:59;;;;;;;26.77;4.90;;;4.70;99.90;;;;;;5104665;27;20508;-57
2022/11/03 02:01:25;;;;;;;15.27;3.77;;;4.70;99.90;;;;;;5108322;28;20470;-57
2022/11/03 02:03:58;;;;;;;52.40;5.27;;;4.70;99.90;;;;;;5102397;28;20509;-57
2022/11/03 02:06:27;;;;;;;58.03;6.50;;;4.70;99.90;;;;;;5114205;27;20453;-55
2022/11/03 02:09:03;;;;;;;8.97;4.13;;;4.60;99.90;;;;;;5122176;27;20474;-55
2022/11/03 02:14:15;;;;;;;19.13;4.10;;;4.50;99.90;;;;;;5115292;27;20440;-56
2022/11/03 02:16:46;;;;;;;50.87;5.00;;;4.50;99.90;;;;;;5110998;27;20442;-57
2022/11/03 02:19:43;;;;;;;19.10;4.67;;;4.40;99.90;;;;;;5125256;27;20176;-54
2022/11/03 02:22:17;;;;;;;68.60;6.07;;;4.40;99.90;;;;;;5121137;27;20628;-55
2022/11/03 02:25:08;;;;;;;81.97;5.40;;;4.40;99.90;;;;;;5112383;27;20505;-58
2022/11/03 02:27:34;;;;;;;80.40;7.83;;;4.40;99.90;;;;;;5118962;27;21037;-55
2022/11/03 02:30:00;;;;;;;53.27;5.33;;;4.40;99.90;;;;;;5124831;27;20441;-55
2022/11/03 02:32:35;;;;;;;30.80;4.03;;;4.30;99.90;;;;;;5107079;27;20180;-61
2022/11/03 02:35:29;;;;;;;48.23;5.33;;;4.30;99.90;;;;;;5129593;27;20670;-57
2022/11/03 02:37:58;;;;;;;10.83;3.80;;;4.30;99.90;;;;;;5123694;27;20434;-55
2022/11/03 02:40:38;;;;;;;13.03;4.20;;;4.30;99.90;;;;;;5127123;27;20440;-57
2022/11/03 02:43:06;;;;;;;34.60;4.77;;;4.30;99.90;;;;;;5124838;27;20425;-55
2022/11/03 02:45:32;;;;;;;32.77;6.47;;;4.30;99.90;;;;;;5120967;27;20490;-58
2022/11/03 02:48:01;;;;;;;58.90;6.30;;;4.30;99.90;;;;;;5113175;27;20453;-56
2022/11/03 02:50:32;;;;;;;9.97;4.47;;;4.30;99.90;;;;;;5132352;27;20177;-57
2022/11/03 02:52:58;;;;;;;21.37;4.50;;;4.30;99.90;;;;;;5131930;27;21049;-57
2022/11/03 02:55:37;;;;;;;34.03;6.00;;;4.30;99.90;;;;;;5122782;27;20445;-59
2022/11/03 02:58:03;;;;;;;16.10;5.40;;;4.30;99.90;;;;;;5091948;28;20177;-55
2022/11/03 03:00:31;;;;;;;26.47;4.63;;;4.30;99.90;;;;;;5119216;27;20860;-57
2022/11/03 03:03:22;;;;;;;16.33;4.90;;;4.30;99.90;;;;;;5109404;27;20244;-55
2022/11/03 03:05:50;;;;;;;7.50;3.57;;;4.20;99.90;;;;;;5110361;27;20441;-53
2022/11/03 03:08:19;;;;;;;11.50;3.70;;;4.20;99.90;;;;;;5124299;27;20460;-55
2022/11/03 03:10:47;;;;;;;44.10;4.13;;;4.20;99.90;;;;;;5098402;27;20414;-54
2022/11/03 03:13:17;;;;;;;27.57;4.00;;;4.20;99.90;;;;;;5125222;27;20430;-55
2022/11/03 03:16:10;;;;;;;8.70;3.30;;;4.20;99.90;;;;;;5114602;27;20456;-57
2022/11/03 03:18:50;;;;;;;60.73;5.20;;;4.20;99.90;;;;;;5127092;27;20406;-55
2022/11/03 03:21:23;;;;;;;16.43;3.03;;;4.20;99.90;;;;;;5121481;27;21207;-56
2022/11/03 03:24:05;;;;;;;15.40;3.33;;;4.10;99.90;;;;;;5118104;27;20426;-54
2022/11/03 03:26:40;;;;;;;8.73;3.30;;;4.10;99.90;;;;;;5123590;27;20571;-55
2022/11/03 03:29:21;;;;;;;56.77;4.83;;;4.10;99.90;;;;;;5127145;27;20445;-58
2022/11/03 03:31:55;;;;;;;9.60;3.50;;;4.10;99.90;;;;;;5117473;27;20475;-55
2022/11/03 03:34:23;;;;;;;15.33;3.87;;;4.10;99.90;;;;;;5119368;27;20417;-55
2022/11/03 03:36:50;;;;;;;19.57;3.67;;;4.10;99.90;;;;;;5121913;27;20493;-56
2022/11/03 03:39:18;;;;;;;6.40;3.53;;;4.10;99.90;;;;;;5095438;28;20426;-57
2022/11/03 03:41:47;;;;;;;8.30;3.90;;;4.10;99.90;;;;;;5122930;27;20507;-59
2022/11/03 03:44:14;;;;;;;11.93;3.60;;;4.10;99.90;;;;;;5116571;27;20498;-56
2022/11/03 03:46:51;;;;;;;15.60;3.63;;;4.10;99.90;;;;;;5125736;27;20537;-56
2022/11/03 03:49:17;;;;;;;11.00;3.37;;;4.10;99.90;;;;;;5117850;27;20575;-58
2022/11/03 03:51:44;;;;;;;13.80;3.73;;;4.10;99.90;;;;;;5114804;27;20426;-60
2022/11/03 03:54:10;;;;;;;6.53;3.50;;;4.10;99.90;;;;;;5123573;27;20511;-56
2022/11/03 03:56:47;;;;;;;10.60;3.93;;;4.10;99.90;;;;;;5123923;27;20550;-58
2022/11/03 03:59:13;;;;;;;14.20;3.50;;;4.10;99.90;;;;;;5121661;27;20548;-60
2022/11/03 04:01:38;;;;;;;5.50;3.10;;;4.10;99.90;;;;;;5121214;27;20438;-55
2022/11/03 04:04:04;;;;;;;8.70;3.63;;;4.10;99.90;;;;;;5114268;27;20264;-57
2022/11/03 04:06:30;;;;;;;17.20;4.13;;;4.10;99.90;;;;;;5124091;27;20192;-58
2022/11/03 04:08:55;;;;;;;19.13;5.23;;;4.10;99.90;;;;;;5123990;27;20207;-56
2022/11/03 04:22:29;;;;;;;5.60;3.80;;;4.10;99.90;;;;;;5124283;28;20468;-58
2022/11/03 04:24:57;;;;;;;16.43;4.10;;;4.10;99.90;;;;;;5121056;28;20426;-60
2022/11/03 04:27:35;;;;;;;8.60;3.50;;;4.10;99.90;;;;;;5120756;28;20468;-55
2022/11/03 04:30:16;;;;;;;22.93;3.60;;;4.10;99.90;;;;;;5114644;28;20430;-60
2022/11/03 04:32:52;;;;;;;24.10;3.97;;;4.00;99.90;;;;;;5112354;28;20469;-56
2022/11/03 04:35:24;;;;;;;12.07;3.50;;;4.00;99.90;;;;;;5120945;28;20430;-58
2022/11/03 04:37:57;;;;;;;12.33;3.17;;;4.00;99.90;;;;;;5120394;28;20503;-55
2022/11/03 04:40:23;;;;;;;13.10;3.10;;;4.00;99.90;;;;;;5118912;28;20464;-58
2022/11/03 04:42:48;;;;;;;73.77;5.30;;;4.00;99.90;;;;;;5119751;28;20447;-54
2022/11/03 04:45:25;;;;;;;3.53;3.23;;;3.90;99.90;;;;;;5119493;28;20645;-55
2022/11/03 04:47:52;;;;;;;10.50;3.87;;;3.90;99.90;;;;;;5120584;28;20211;-59
2022/11/03 04:50:20;;;;;;;35.20;5.20;;;3.90;99.90;;;;;;5137189;27;20390;-57
2022/11/03 04:52:47;;;;;;;9.50;3.33;;;3.90;99.90;;;;;;5130936;27;20975;-56
2022/11/03 04:55:19;;;;;;;15.50;3.57;;;3.90;99.90;;;;;;5129392;27;20429;-57
2022/11/03 04:57:45;;;;;;;10.53;2.90;;;3.90;99.90;;;;;;5106661;27;20476;-56
2022/11/03 05:00:18;;;;;;;11.80;3.30;;;3.80;99.90;;;;;;5125495;27;20433;-55
2022/11/03 05:02:46;;;;;;;20.00;4.17;;;3.90;99.90;;;;;;5122411;27;20425;-56
2022/11/03 05:05:20;;;;;;;26.40;4.53;;;3.80;99.90;;;;;;5129991;27;20962;-54
2022/11/03 05:07:48;;;;;;;6.67;3.47;;;3.80;99.90;;;;;;5119986;27;20465;-55
2022/11/03 05:10:21;;;;;;;6.73;3.57;;;3.80;99.90;;;;;;5118906;27;20517;-55
2022/11/03 05:12:48;;;;;;;12.17;3.67;;;3.80;99.90;;;;;;5123014;27;20431;-55
2022/11/03 05:15:36;;;;;;;18.63;4.03;;;3.80;99.90;;;;;;5126073;27;20426;-54
2022/11/03 05:18:43;;;;;;;15.80;3.10;;;3.80;99.90;;;;;;5127426;27;20458;-59
2022/11/03 05:21:16;;;;;;;25.07;3.70;;;3.80;99.90;;;;;;5062436;28;20444;-59
2022/11/03 05:23:49;;;;;;;33.93;4.40;;;3.80;99.90;;;;;;5113751;27;20443;-55
2022/11/03 05:26:27;;;;;;;57.47;9.50;;;3.70;99.90;;;;;;5124936;27;20457;-56
2022/11/03 05:29:16;;;;;;;44.10;9.07;;;3.70;99.90;;;;;;5105469;27;20473;-58
2022/11/03 05:31:44;;;;;;;31.97;5.80;;;3.80;99.90;;;;;;5123998;27;20430;-55
2022/11/03 05:34:30;;;;;;;17.27;3.83;;;3.80;99.90;;;;;;5125528;27;20451;-57
2022/11/03 05:37:05;;;;;;;7.37;4.10;;;3.80;99.90;;;;;;5126329;27;20444;-55
2022/11/03 05:39:34;;;;;;;6.70;4.40;;;3.80;99.90;;;;;;5122069;27;20434;-55
2022/11/03 05:42:01;;;;;;;12.80;4.20;;;3.80;99.90;;;;;;5119434;27;20521;-56
2022/11/03 05:44:32;;;;;;;17.60;4.07;;;3.80;99.90;;;;;;5124825;27;20456;-56
2022/11/03 05:46:59;;;;;;;13.90;3.80;;;3.80;99.90;;;;;;5129826;27;20822;-56
2022/11/03 05:49:27;;;;;;;37.70;4.70;;;3.80;99.90;;;;;;5129235;27;20463;-55
2022/11/03 05:51:52;;;;;;;5.10;3.50;;;3.80;99.90;;;;;;5103280;28;20429;-54
2022/11/03 05:54:32;;;;;;;11.20;3.30;;;3.80;99.90;;;;;;5099832;28;20418;-56
2022/11/03 05:56:57;;;;;;;9.53;3.60;;;3.80;99.90;;;;;;5125460;27;20243;-57
2022/11/03 05:59:28;;;;;;;6.93;3.60;;;3.80;99.90;;;;;;5127127;27;20985;-55
2022/11/03 06:01:58;;;;;;;28.37;3.70;;;3.80;99.90;;;;;;5121169;27;20627;-55
2022/11/03 06:04:36;;;;;;;6.53;3.43;;;3.80;99.90;;;;;;5137854;27;20431;-62
2022/11/03 06:07:13;;;;;;;8.83;3.63;;;3.70;99.90;;;;;;5133677;27;20521;-55
2022/11/03 06:09:38;;;;;;;6.13;3.27;;;3.70;99.90;;;;;;5137489;27;20460;-58
2022/11/03 06:12:09;;;;;;;7.90;3.70;;;3.70;99.90;;;;;;5129910;27;20441;-55
2022/11/03 06:14:35;;;;;;;24.47;4.03;;;3.70;99.90;;;;;;5102940;27;20182;-56
2022/11/03 06:17:04;;;;;;;20.03;4.27;;;3.80;99.90;;;;;;5133315;27;20454;-58
2022/11/03 06:19:35;;;;;;;24.30;4.03;;;3.80;99.90;;;;;;5127608;27;20474;-57
2022/11/03 06:22:19;;;;;;;13.73;3.60;;;3.80;99.90;;;;;;5098177;27;20423;-59
2022/11/03 06:24:46;;;;;;;10.97;3.93;;;3.80;99.90;;;;;;5123059;27;20556;-57
2022/11/03 06:27:21;;;;;;;14.07;4.93;;;3.80;99.90;;;;;;5126668;27;20446;-57
2022/11/03 06:29:56;;;;;;;13.53;3.90;;;3.80;99.90;;;;;;5123554;27;21175;-57
2022/11/03 06:32:22;;;;;;;24.07;5.10;;;3.80;99.90;;;;;;5127493;27;20606;-57
2022/11/03 06:34:51;;;;;;;13.97;5.13;;;3.80;99.90;;;;;;5128934;27;20432;-57
2022/11/03 06:37:19;;;;;;;8.37;4.13;;;3.80;99.90;;;;;;5124892;27;21347;-56
2022/11/03 06:39:46;;;;;;;14.70;4.47;;;3.90;99.90;;;;;;5130224;27;20442;-57
2022/11/03 06:42:13;;;;;;;16.53;4.00;;;3.90;99.90;;;;;;5125476;27;20433;-56
2022/11/03 06:44:46;;;;;;;21.87;4.17;;;4.00;99.90;;;;;;5129951;27;20805;-58
2022/11/03 06:47:22;;;;;;;10.77;3.93;;;4.00;99.90;;;;;;5120350;27;20458;-57
2022/11/03 06:49:57;;;;;;;16.57;4.83;;;4.00;99.90;;;;;;5124199;27;20475;-56
2022/11/03 06:52:32;;;;;;;24.67;4.60;;;4.00;99.90;;;;;;5129891;27;20504;-56
2022/11/03 06:54:58;;;;;;;18.90;4.30;;;4.10;99.90;;;;;;5124133;27;20426;-57
2022/11/03 06:57:23;;;;;;;15.13;4.10;;;4.10;99.90;;;;;;5124574;27;20474;-56
2022/11/03 06:59:51;;;;;;;13.50;3.43;;;4.20;99.90;;;;;;5121535;27;20226;-57
2022/11/03 07:02:57;;;;;;;36.53;4.20;;;4.20;99.90;;;;;;5127979;27;20168;-57
2022/11/03 07:05:25;;;;;;;13.60;4.33;;;4.30;99.90;;;;;;5130366;27;20425;-57
2022/11/03 07:08:01;;;;;;;31.73;4.40;;;4.30;99.90;;;;;;5124095;27;20492;-60
2022/11/03 07:10:32;;;;;;;8.93;4.07;;;4.30;99.90;;;;;;5126921;27;20441;-58
2022/11/03 07:13:05;;;;;;;12.37;4.13;;;4.30;99.90;;;;;;5129031;27;20430;-56
2022/11/03 07:15:34;;;;;;;12.17;4.53;;;4.30;99.90;;;;;;5125690;27;20958;-56
2022/11/03 07:18:01;;;;;;;14.37;5.30;;;4.30;99.90;;;;;;5126400;27;20431;-58
2022/11/03 07:20:27;;;;;;;6.37;3.70;;;4.40;99.90;;;;;;5123310;27;20425;-57
2022/11/03 07:22:54;;;;;;;22.90;4.20;;;4.40;99.90;;;;;;5126769;27;20437;-61
2022/11/03 07:25:21;;;;;;;25.63;4.67;;;4.40;99.90;;;;;;5128997;27;20430;-61
2022/11/03 07:27:50;;;;;;;24.97;4.67;;;4.50;99.90;;;;;;5125118;27;20450;-56
2022/11/03 07:30:35;;;;;;;21.90;4.33;;;4.60;99.90;;;;;;5128144;27;20426;-58
2022/11/03 07:33:18;;;;;;;16.20;3.90;;;4.60;99.90;;;;;;5116616;27;20419;-57
2022/11/03 07:35:44;;;;;;;17.50;4.30;;;4.60;99.90;;;;;;5123237;27;20454;-56
2022/11/03 07:38:14;;;;;;;21.03;4.17;;;4.60;99.90;;;;;;5113409;27;20927;-57
2022/11/03 07:40:41;;;;;;;8.27;3.60;;;4.60;99.90;;;;;;5115830;27;20438;-59
2022/11/03 07:43:32;;;;;;;19.63;4.20;;;4.60;99.90;;;;;;5124857;27;20432;-58
2022/11/03 07:46:03;;;;;;;9.67;3.63;;;4.70;99.90;;;;;;5117223;27;20454;-58
2022/11/03 07:48:36;;;;;;;7.30;3.77;;;4.70;99.90;;;;;;5125688;27;20453;-57
2022/11/03 07:51:31;;;;;;;20.97;4.10;;;4.80;99.90;;;;;;5120204;27;20406;-60
2022/11/03 07:54:19;;;;;;;7.43;3.60;;;4.90;99.90;;;;;;5104207;27;20438;-60
2022/11/03 07:56:46;;;;;;;10.33;3.87;;;5.00;99.90;;;;;;5128064;27;20480;-58
2022/11/03 07:59:18;;;;;;;6.67;3.73;;;5.00;99.90;;;;;;5138016;27;20437;-57
2022/11/03 08:01:53;;;;;;;13.80;4.17;;;5.10;99.90;;;;;;5138943;27;20462;-59
2022/11/03 08:04:34;;;;;;;6.03;3.80;;;5.10;99.90;;;;;;5120753;27;20476;-58
2022/11/03 08:07:00;;;;;;;10.13;4.00;;;5.10;99.90;;;;;;5110064;27;20511;-56
2022/11/03 08:09:26;;;;;;;13.17;4.47;;;5.20;99.90;;;;;;5096861;27;20455;-60
2022/11/03 08:11:52;;;;;;;12.13;4.20;;;5.20;99.90;;;;;;5123138;27;20611;-55
2022/11/03 08:14:18;;;;;;;6.03;3.93;;;5.20;99.90;;;;;;5123013;22;20486;-60
2022/11/03 08:16:43;;;;;;;9.40;4.10;;;5.30;99.90;;;;;;5108973;28;20490;-62
2022/11/03 08:19:10;;;;;;;26.33;4.97;;;5.30;99.90;;;;;;5104704;28;20430;-62
2022/11/03 08:21:35;;;;;;;11.53;4.70;;;5.30;99.90;;;;;;5107680;28;20181;-59
2022/11/03 08:24:01;;;;;;;12.53;5.50;;;5.40;99.90;;;;;;5114074;27;20464;-61
2022/11/03 08:26:26;;;;;;;12.83;7.10;;;5.40;99.90;;;;;;5125470;27;20184;-58
2022/11/03 08:28:52;;;;;;;13.27;6.60;;;5.40;99.90;;;;;;5128736;27;20215;-60
2022/11/03 08:31:18;;;;;;;11.50;6.07;;;5.50;99.90;;;;;;5127251;27;20626;-58
2022/11/03 08:33:43;;;;;;;17.17;6.50;;;5.60;99.90;;;;;;5128532;27;20196;-60
2022/11/03 08:36:09;;;;;;;12.93;6.63;;;5.60;99.90;;;;;;5123277;27;20185;-59
2022/11/03 08:38:35;;;;;;;18.73;6.80;;;5.70;99.90;;;;;;5126385;27;20673;-59
2022/11/03 08:41:02;;;;;;;28.37;7.13;;;5.80;99.90;;;;;;5127575;27;20176;-60
2022/11/03 08:43:27;;;;;;;19.10;5.53;;;5.80;99.90;;;;;;5104886;27;20438;-60
2022/11/03 08:45:53;;;;;;;13.30;5.43;;;5.90;99.90;;;;;;5126760;27;20953;-61
2022/11/03 08:48:28;;;;;;;17.63;6.10;;;6.00;99.90;;;;;;5125672;27;20215;-60
2022/11/03 08:50:54;;;;;;;10.30;5.00;;;6.10;99.90;;;;;;5126865;27;20169;-59
2022/11/03 08:53:21;;;;;;;12.33;6.10;;;6.10;99.90;;;;;;5110316;27;21099;-60
2022/11/03 08:55:47;;;;;;;23.00;6.33;;;6.20;99.90;;;;;;5129344;27;20899;-61
2022/11/03 08:58:12;;;;;;;16.60;6.00;;;6.20;99.90;;;;;;5126401;27;20509;-62
2022/11/03 09:00:38;;;;;;;19.50;5.50;;;6.30;99.90;;;;;;5127514;27;20792;-60
2022/11/03 09:03:04;;;;;;;10.77;6.10;;;6.30;99.90;;;;;;5123470;27;20184;-60
2022/11/03 09:05:30;;;;;;;10.23;5.77;;;6.30;99.90;;;;;;5127880;27;20200;-60
2022/11/03 09:07:55;;;;;;;20.13;6.37;;;6.40;99.90;;;;;;5125051;27;20224;-58
2022/11/03 09:10:21;;;;;;;16.73;6.03;;;6.40;99.90;;;;;;5121890;27;20669;-61
2022/11/03 09:12:47;;;;;;;13.03;6.10;;;6.50;99.90;;;;;;5125675;27;20754;-61
2022/11/03 09:15:12;;;;;;;10.97;5.77;;;6.50;99.90;;;;;;5109332;27;20262;-61
2022/11/03 09:17:38;;;;;;;15.17;6.30;;;6.60;99.90;;;;;;5125960;27;20252;-60
2022/11/03 09:20:05;;;;;;;17.33;5.93;;;6.70;99.90;;;;;;5113829;27;20176;-60
2022/11/03 09:22:31;;;;;;;18.03;7.33;;;6.70;99.90;;;;;;5129368;27;20748;-61
2022/11/03 09:24:57;;;;;;;11.67;6.13;;;6.70;99.90;;;;;;5126083;27;20818;-61
2022/11/03 09:27:22;;;;;;;21.13;8.10;;;6.80;99.90;;;;;;5127716;27;20444;-60
2022/11/03 09:29:48;;;;;;;19.40;7.70;;;6.80;99.90;;;;;;5130665;27;20986;-61
2022/11/03 09:32:15;;;;;;;19.13;8.10;;;6.90;99.90;;;;;;5108610;27;20439;-62
2022/11/03 09:34:40;;;;;;;17.53;9.20;;;6.90;99.90;;;;;;5122644;27;20736;-62
2022/11/03 09:37:06;;;;;;;13.70;8.17;;;7.00;99.90;;;;;;5119361;27;20426;-62
2022/11/03 09:39:33;;;;;;;15.20;8.47;;;7.10;99.90;;;;;;5123345;27;20602;-61
2022/11/03 09:42:02;;;;;;;18.77;8.43;;;7.20;99.90;;;;;;5124070;27;20496;-61
2022/11/03 09:44:27;;;;;;;15.27;8.20;;;7.20;99.90;;;;;;5120007;27;20453;-61
2022/11/03 09:46:53;;;;;;;31.30;8.50;;;7.30;99.90;;;;;;5123397;27;20445;-61
2022/11/03 09:49:20;;;;;;;17.20;8.43;;;7.30;99.90;;;;;;5125171;27;21008;-62
2022/11/03 09:51:46;;;;;;;19.10;8.60;;;7.30;99.90;;;;;;5126177;27;20172;-59
2022/11/03 09:54:14;;;;;;;16.57;8.50;;;7.40;99.90;;;;;;5129270;27;20441;-61
2022/11/03 09:56:40;;;;;;;13.63;7.80;;;7.50;99.90;;;;;;5128333;27;20199;-61
2022/11/03 09:59:17;;;;;;;15.83;8.47;;;7.50;99.90;;;;;;5095818;27;20450;-61
2022/11/03 10:01:47;;;;;;;15.57;9.50;;;7.60;99.90;;;;;;5123161;27;20927;-61
2022/11/03 10:04:13;;;;;;;15.00;9.17;;;7.70;99.90;;;;;;5121258;27;20461;-62
2022/11/03 10:06:39;;;;;;;23.13;9.20;;;7.80;99.90;;;;;;5129267;27;20431;-61
2022/11/03 10:09:09;;;;;;;12.03;8.70;;;7.80;99.90;;;;;;5130634;27;20469;-61
2022/11/03 10:11:36;;;;;;;17.70;9.87;;;7.80;99.90;;;;;;5126601;27;20437;-61
2022/11/03 10:14:02;;;;;;;16.13;9.10;;;7.90;99.90;;;;;;5127758;27;20575;-61
2022/11/03 10:16:28;;;;;;;13.73;8.60;;;8.00;99.90;;;;;;5128249;27;20517;-61
2022/11/03 10:18:54;;;;;;;19.10;9.80;;;8.10;99.90;;;;;;5131048;27;20168;-61
2022/11/03 10:21:36;;;;;;;20.10;11.80;;;8.20;99.90;;;;;;5123978;27;20866;-61
2022/11/03 10:24:02;;;;;;;20.37;10.57;;;8.20;99.90;;;;;;5118572;27;20193;-62
2022/11/03 10:26:34;;;;;;;20.27;10.80;;;8.30;99.90;;;;;;5117887;27;20521;-61
2022/11/03 10:29:02;;;;;;;16.60;10.13;;;8.40;99.90;;;;;;5112180;27;20197;-61
2022/11/03 10:31:35;;;;;;;17.37;9.90;;;8.40;99.90;;;;;;5118417;27;20826;-61
2022/11/03 10:34:01;;;;;;;15.97;9.93;;;8.50;99.90;;;;;;5116062;27;20446;-59
2022/11/03 10:36:29;;;;;;;14.07;9.80;;;8.60;99.90;;;;;;5132466;27;20390;-61
2022/11/03 10:38:56;;;;;;;14.73;10.10;;;8.60;99.90;;;;;;5125296;27;20427;-61
2022/11/03 10:41:29;;;;;;;19.93;10.47;;;8.70;99.90;;;;;;5113879;27;20429;-61
2022/11/03 10:44:24;;;;;;;13.73;9.70;;;8.80;99.90;;;;;;5129414;27;20485;-61
2022/11/03 10:47:01;;;;;;;18.30;10.53;;;8.80;99.90;;;;;;5119967;27;20627;-63
2022/11/03 10:49:37;;;;;;;17.27;10.30;;;8.90;99.90;;;;;;5121998;27;20457;-62
2022/11/03 10:52:19;;;;;;;15.60;10.70;;;9.00;99.90;;;;;;5130529;27;20453;-62
2022/11/03 10:54:46;;;;;;;15.70;10.57;;;9.00;99.90;;;;;;5130719;27;20445;-62
2022/11/03 10:57:13;;;;;;;20.70;11.53;;;9.00;99.90;;;;;;5125362;27;20423;-61
2022/11/03 10:59:39;;;;;;;14.40;9.90;;;9.10;99.90;;;;;;5121879;27;20434;-62
2022/11/03 11:02:19;;;;;;;16.50;10.00;;;9.10;99.90;;;;;;5106457;27;20443;-62
2022/11/03 11:04:47;;;;;;;20.57;11.10;;;9.10;99.90;;;;;;5112108;28;20438;-62
2022/11/03 11:07:24;;;;;;;17.50;11.50;;;9.10;99.90;;;;;;5123899;27;20541;-61
2022/11/03 11:09:51;;;;;;;19.70;11.30;;;9.10;99.90;;;;;;5118949;27;20461;-61
2022/11/03 11:12:21;;;;;;;24.00;10.73;;;9.10;99.90;;;;;;5121039;27;20551;-62
2022/11/03 11:14:58;;;;;;;16.60;10.73;;;9.20;99.90;;;;;;5123980;27;20992;-62
2022/11/03 11:17:36;;;;;;;20.00;11.70;;;9.20;99.90;;;;;;5124694;27;20957;-62
2022/11/03 11:20:23;;;;;;;14.93;10.60;;;9.20;99.90;;;;;;5126946;27;20902;-62
2022/11/03 11:22:49;;;;;;;18.00;11.43;;;9.20;99.90;;;;;;5126251;27;20437;-62
2022/11/03 11:25:18;;;;;;;18.10;11.20;;;9.30;99.90;;;;;;5130006;27;20454;-61
2022/11/03 11:27:43;;;;;;;16.73;11.60;;;9.30;99.90;;;;;;5125004;27;20413;-61
2022/11/03 11:30:18;;;;;;;17.47;11.57;;;9.30;99.90;;;;;;5117417;27;20437;-61
2022/11/03 11:32:43;;;;;;;19.90;11.60;;;9.40;99.90;;;;;;5125573;27;20236;-61
2022/11/03 11:35:10;;;;;;;17.33;10.67;;;9.40;99.90;;;;;;5126907;27;20838;-62
2022/11/03 11:37:37;;;;;;;18.10;11.33;;;9.50;99.90;;;;;;5117711;27;20551;-61
2022/11/03 11:40:27;;;;;;;18.13;11.73;;;9.50;99.90;;;;;;5121724;27;20442;-63
2022/11/03 11:43:03;;;;;;;18.20;11.33;;;9.50;99.90;;;;;;5124219;27;20432;-61
2022/11/03 11:46:06;;;;;;;18.07;12.23;;;9.50;99.90;;;;;;5119801;27;20453;-62
2022/11/03 11:48:32;;;;;;;24.60;11.80;;;9.60;99.90;;;;;;5127444;27;21055;-61
2022/11/03 11:50:58;;;;;;;19.40;11.70;;;9.60;99.90;;;;;;5131373;27;20422;-62
2022/11/03 11:53:25;;;;;;;19.53;10.93;;;9.60;99.90;;;;;;5128512;27;20483;-61
2022/11/03 11:55:55;;;;;;;20.70;11.23;;;9.70;99.90;;;;;;5113251;27;20434;-60
2022/11/03 11:58:23;;;;;;;21.20;11.93;;;9.70;99.90;;;;;;5113383;27;20438;-62
2022/11/03 12:00:58;;;;;;;19.30;10.97;;;9.80;99.90;;;;;;5123921;27;20782;-60
2022/11/03 12:03:37;;;;;;;17.10;11.03;;;9.90;99.90;;;;;;5116046;27;20434;-61
2022/11/03 12:06:03;;;;;;;21.47;11.70;;;9.90;99.90;;;;;;5116941;27;20438;-60
2022/11/03 12:08:30;;;;;;;17.63;11.30;;;10.00;99.90;;;;;;5119105;27;20491;-62
2022/11/03 12:11:02;;;;;;;21.60;13.03;;;10.10;99.90;;;;;;5124271;27;20435;-61
2022/11/03 12:13:42;;;;;;;24.13;12.97;;;10.20;99.90;;;;;;5117843;27;20426;-61
2022/11/03 12:16:08;;;;;;;21.73;12.17;;;10.20;99.90;;;;;;5116064;27;20417;-61
2022/11/03 12:18:39;;;;;;;23.13;12.07;;;10.30;99.90;;;;;;5120563;27;20426;-61
2022/11/03 12:21:06;;;;;;;28.77;11.37;;;10.40;99.90;;;;;;5119875;27;20403;-61
2022/11/03 12:23:46;;;;;;;23.67;12.00;;;10.50;99.90;;;;;;5116258;28;21151;-61
2022/11/03 12:26:41;;;;;;;19.33;11.23;;;10.50;99.90;;;;;;5101261;28;20437;-61
2022/11/03 12:29:07;;;;;;;22.50;12.07;;;10.60;99.90;;;;;;5120015;28;20466;-64
2022/11/03 12:31:32;;;;;;;21.20;11.47;;;10.60;99.90;;;;;;5121815;28;20522;-59
2022/11/03 12:33:58;;;;;;;25.10;12.23;;;10.60;99.90;;;;;;5118086;27;20573;-58
2022/11/03 12:36:24;;;;;;;23.07;13.23;;;10.60;99.90;;;;;;5120036;27;20179;-59
2022/11/03 12:38:49;;;;;;;17.60;11.23;;;10.60;99.90;;;;;;5121269;27;20268;-59
2022/11/03 12:41:21;;;;;;;17.73;12.07;;;10.50;99.90;;;;;;5121506;27;20651;-59
2022/11/03 12:43:48;;;;;;;20.37;11.60;;;10.40;99.90;;;;;;5112119;28;20778;-60
2022/11/03 12:46:18;;;;;;;18.83;11.20;;;10.40;99.90;;;;;;5115470;28;20955;-59
2022/11/03 12:48:46;;;;;;;21.63;11.57;;;10.40;99.90;;;;;;5121952;27;20462;-59
2022/11/03 12:51:23;;;;;;;21.30;10.77;;;10.30;99.90;;;;;;5120896;27;20425;-59
2022/11/03 12:53:49;;;;;;;16.07;10.43;;;10.30;99.90;;;;;;5113287;27;20449;-59
2022/11/03 12:56:16;;;;;;;16.90;11.50;;;10.30;99.90;;;;;;5119273;28;20550;-58
2022/11/03 12:58:41;;;;;;;20.20;12.47;;;10.20;99.90;;;;;;5118667;28;20993;-59
2022/11/03 13:01:08;;;;;;;18.03;11.10;;;10.20;99.90;;;;;;5105260;28;20427;-59
2022/11/03 13:03:35;;;;;;;20.57;11.90;;;10.10;99.90;;;;;;5118708;28;20201;-58
2022/11/03 13:06:03;;;;;;;19.00;12.17;;;10.10;99.90;;;;;;5119724;28;20993;-58
2022/11/03 13:08:29;;;;;;;25.67;12.30;;;10.00;99.90;;;;;;5100435;28;20536;-59
2022/11/03 13:10:56;;;;;;;19.40;11.23;;;10.00;99.90;;;;;;5118937;27;20433;-59
2022/11/03 13:13:22;;;;;;;17.10;10.47;;;9.90;99.90;;;;;;5119453;27;20458;-59
2022/11/03 13:15:47;;;;;;;15.57;9.97;;;9.90;99.90;;;;;;5122901;27;20892;-59
2022/11/03 13:18:13;;;;;;;15.73;9.90;;;9.90;99.90;;;;;;5123475;27;20252;-56
2022/11/03 13:20:38;;;;;;;15.40;10.50;;;9.80;99.90;;;;;;5127061;27;20964;-60
2022/11/03 13:23:04;;;;;;;19.50;12.67;;;9.80;99.90;;;;;;5105106;27;20185;-60
2022/11/03 13:25:30;;;;;;;20.00;11.40;;;9.80;99.90;;;;;;5110888;27;20204;-59